sensor_id;sensor_type;location;lat;lon;timestamp;P1;durP1;ratioP1;P2;durP2;ratioP2
60225;SDS011;46090;48.436;11.410;2023-05-07T00:02:39;1.95;;;0.20;;
60225;SDS011;46090;48.436;11.410;2023-05-07T00:05:30;0.60;;;0.15;;
60225;SDS011;46090;48.436;11.410;2023-05-07T00:08:15;0.93;;;0.20;;
60225;SDS011;46090;48.436;11.410;2023-05-07T00:11:00;0.50;;;0.20;;
60225;SDS011;46090;48.436;11.410;2023-05-07T00:13:47;0.85;;;0.20;;
60225;SDS011;46090;48.436;11.410;2023-05-07T00:16:33;0.85;;;0.20;;
60225;SDS011;46090;48.436;11.410;2023-05-07T00:19:18;1.00;;;0.20;;
60225;SDS011;46090;48.436;11.410;2023-05-07T00:22:03;1.63;;;0.20;;
60225;SDS011;46090;48.436;11.410;2023-05-07T00:24:49;2.28;;;0.03;;
60225;SDS011;46090;48.436;11.410;2023-05-07T00:27:34;0.55;;;0.10;;
60225;SDS011;46090;48.436;11.410;2023-05-07T00:30:19;1.75;;;0.20;;
60225;SDS011;46090;48.436;11.410;2023-05-07T00:33:05;1.38;;;0.38;;
60225;SDS011;46090;48.436;11.410;2023-05-07T00:35:50;2.90;;;0.20;;
60225;SDS011;46090;48.436;11.410;2023-05-07T00:38:35;1.60;;;0.20;;
60225;SDS011;46090;48.436;11.410;2023-05-07T00:41:21;1.00;;;0.20;;
60225;SDS011;46090;48.436;11.410;2023-05-07T00:44:06;0.85;;;0.10;;
60225;SDS011;46090;48.436;11.410;2023-05-07T00:46:51;0.68;;;0.20;;
60225;SDS011;46090;48.436;11.410;2023-05-07T00:52:28;1.10;;;0.17;;
60225;SDS011;46090;48.436;11.410;2023-05-07T00:55:14;0.65;;;0.10;;
60225;SDS011;46090;48.436;11.410;2023-05-07T00:57:59;1.05;;;0.20;;
60225;SDS011;46090;48.436;11.410;2023-05-07T01:00:45;1.27;;;0.20;;
60225;SDS011;46090;48.436;11.410;2023-05-07T01:03:30;1.35;;;0.20;;
60225;SDS011;46090;48.436;11.410;2023-05-07T01:06:16;0.88;;;0.20;;
60225;SDS011;46090;48.436;11.410;2023-05-07T01:09:03;1.40;;;0.30;;
60225;SDS011;46090;48.436;11.410;2023-05-07T01:11:49;0.95;;;0.20;;
60225;SDS011;46090;48.436;11.410;2023-05-07T01:14:35;0.98;;;0.28;;
60225;SDS011;46090;48.436;11.410;2023-05-07T01:20:06;0.70;;;0.20;;
60225;SDS011;46090;48.436;11.410;2023-05-07T01:22:52;1.08;;;0.20;;
60225;SDS011;46090;48.436;11.410;2023-05-07T01:25:38;1.58;;;0.20;;
60225;SDS011;46090;48.436;11.410;2023-05-07T01:28:25;0.50;;;0.10;;
60225;SDS011;46090;48.436;11.410;2023-05-07T01:31:14;0.22;;;0.10;;
60225;SDS011;46090;48.436;11.410;2023-05-07T01:34:00;0.47;;;0.10;;
60225;SDS011;46090;48.436;11.410;2023-05-07T01:36:45;0.63;;;0.10;;
60225;SDS011;46090;48.436;11.410;2023-05-07T01:39:31;0.52;;;0.10;;
60225;SDS011;46090;48.436;11.410;2023-05-07T01:45:02;0.75;;;0.10;;
60225;SDS011;46090;48.436;11.410;2023-05-07T01:50:32;1.67;;;0.10;;
60225;SDS011;46090;48.436;11.410;2023-05-07T01:53:18;1.20;;;0.20;;
60225;SDS011;46090;48.436;11.410;2023-05-07T01:58:50;0.70;;;0.20;;
60225;SDS011;46090;48.436;11.410;2023-05-07T02:01:37;1.55;;;0.13;;
60225;SDS011;46090;48.436;11.410;2023-05-07T02:04:22;0.50;;;0.10;;
60225;SDS011;46090;48.436;11.410;2023-05-07T02:07:09;1.38;;;0.17;;
60225;SDS011;46090;48.436;11.410;2023-05-07T02:09:55;1.30;;;0.20;;
60225;SDS011;46090;48.436;11.410;2023-05-07T02:12:40;1.55;;;0.10;;
60225;SDS011;46090;48.436;11.410;2023-05-07T02:15:26;1.38;;;0.28;;
60225;SDS011;46090;48.436;11.410;2023-05-07T02:18:12;1.50;;;0.10;;
60225;SDS011;46090;48.436;11.410;2023-05-07T02:20:57;0.68;;;0.20;;
60225;SDS011;46090;48.436;11.410;2023-05-07T02:23:42;1.25;;;0.10;;
60225;SDS011;46090;48.436;11.410;2023-05-07T02:26:27;1.95;;;0.20;;
60225;SDS011;46090;48.436;11.410;2023-05-07T02:29:13;1.00;;;0.17;;
60225;SDS011;46090;48.436;11.410;2023-05-07T02:31:58;0.55;;;0.10;;
60225;SDS011;46090;48.436;11.410;2023-05-07T02:37:29;2.70;;;0.27;;
60225;SDS011;46090;48.436;11.410;2023-05-07T02:43:00;1.98;;;0.43;;
60225;SDS011;46090;48.436;11.410;2023-05-07T02:45:46;1.35;;;0.20;;
60225;SDS011;46090;48.436;11.410;2023-05-07T02:48:32;1.15;;;0.17;;
60225;SDS011;46090;48.436;11.410;2023-05-07T02:51:21;0.68;;;0.10;;
60225;SDS011;46090;48.436;11.410;2023-05-07T02:54:11;1.95;;;0.17;;
60225;SDS011;46090;48.436;11.410;2023-05-07T02:56:56;1.10;;;0.20;;
60225;SDS011;46090;48.436;11.410;2023-05-07T02:59:42;2.67;;;0.20;;
60225;SDS011;46090;48.436;11.410;2023-05-07T03:02:29;1.02;;;0.17;;
60225;SDS011;46090;48.436;11.410;2023-05-07T03:05:15;0.43;;;0.10;;
60225;SDS011;46090;48.436;11.410;2023-05-07T03:08:00;1.02;;;0.20;;
60225;SDS011;46090;48.436;11.410;2023-05-07T03:10:45;1.25;;;0.20;;
60225;SDS011;46090;48.436;11.410;2023-05-07T03:13:31;0.75;;;0.20;;
60225;SDS011;46090;48.436;11.410;2023-05-07T03:16:16;0.80;;;0.10;;
60225;SDS011;46090;48.436;11.410;2023-05-07T03:19:01;1.80;;;0.10;;
60225;SDS011;46090;48.436;11.410;2023-05-07T03:21:47;1.42;;;0.15;;
60225;SDS011;46090;48.436;11.410;2023-05-07T03:27:17;1.00;;;0.30;;
60225;SDS011;46090;48.436;11.410;2023-05-07T03:30:03;0.90;;;0.13;;
60225;SDS011;46090;48.436;11.410;2023-05-07T03:32:49;1.98;;;0.20;;
60225;SDS011;46090;48.436;11.410;2023-05-07T03:35:35;0.68;;;0.20;;
60225;SDS011;46090;48.436;11.410;2023-05-07T03:38:20;3.00;;;0.50;;
60225;SDS011;46090;48.436;11.410;2023-05-07T03:41:06;0.50;;;0.10;;
60225;SDS011;46090;48.436;11.410;2023-05-07T03:43:51;0.35;;;0.10;;
60225;SDS011;46090;48.436;11.410;2023-05-07T03:46:37;1.02;;;0.20;;
60225;SDS011;46090;48.436;11.410;2023-05-07T03:49:23;0.32;;;0.10;;
60225;SDS011;46090;48.436;11.410;2023-05-07T03:52:08;0.47;;;0.20;;
60225;SDS011;46090;48.436;11.410;2023-05-07T03:57:39;1.17;;;0.20;;
60225;SDS011;46090;48.436;11.410;2023-05-07T04:00:24;0.80;;;0.13;;
60225;SDS011;46090;48.436;11.410;2023-05-07T04:03:09;0.82;;;0.20;;
60225;SDS011;46090;48.436;11.410;2023-05-07T04:05:55;0.73;;;0.13;;
60225;SDS011;46090;48.436;11.410;2023-05-07T04:11:27;1.17;;;0.28;;
60225;SDS011;46090;48.436;11.410;2023-05-07T04:14:12;0.88;;;0.10;;
60225;SDS011;46090;48.436;11.410;2023-05-07T04:16:58;0.70;;;0.20;;
60225;SDS011;46090;48.436;11.410;2023-05-07T04:19:45;0.35;;;0.10;;
60225;SDS011;46090;48.436;11.410;2023-05-07T04:22:32;0.98;;;0.20;;
60225;SDS011;46090;48.436;11.410;2023-05-07T04:25:18;0.80;;;0.10;;
60225;SDS011;46090;48.436;11.410;2023-05-07T04:28:03;0.68;;;0.10;;
60225;SDS011;46090;48.436;11.410;2023-05-07T04:30:50;0.38;;;0.10;;
60225;SDS011;46090;48.436;11.410;2023-05-07T04:33:36;2.20;;;0.17;;
60225;SDS011;46090;48.436;11.410;2023-05-07T04:36:23;0.40;;;0.10;;
60225;SDS011;46090;48.436;11.410;2023-05-07T04:39:17;0.82;;;0.22;;
60225;SDS011;46090;48.436;11.410;2023-05-07T04:42:04;0.90;;;0.13;;
60225;SDS011;46090;48.436;11.410;2023-05-07T04:44:53;0.50;;;0.20;;
60225;SDS011;46090;48.436;11.410;2023-05-07T04:47:41;0.32;;;0.10;;
60225;SDS011;46090;48.436;11.410;2023-05-07T04:50:26;1.45;;;0.10;;
60225;SDS011;46090;48.436;11.410;2023-05-07T04:53:16;0.38;;;0.20;;
60225;SDS011;46090;48.436;11.410;2023-05-07T04:56:02;0.50;;;0.10;;
60225;SDS011;46090;48.436;11.410;2023-05-07T04:58:54;0.70;;;0.10;;
60225;SDS011;46090;48.436;11.410;2023-05-07T05:01:39;1.80;;;0.20;;
60225;SDS011;46090;48.436;11.410;2023-05-07T05:04:25;5.05;;;0.35;;
60225;SDS011;46090;48.436;11.410;2023-05-07T05:07:10;0.50;;;0.10;;
60225;SDS011;46090;48.436;11.410;2023-05-07T05:09:56;0.80;;;0.20;;
60225;SDS011;46090;48.436;11.410;2023-05-07T05:12:43;0.10;;;0.10;;
60225;SDS011;46090;48.436;11.410;2023-05-07T05:15:28;0.22;;;0.10;;
60225;SDS011;46090;48.436;11.410;2023-05-07T05:18:16;0.85;;;0.20;;
60225;SDS011;46090;48.436;11.410;2023-05-07T05:26:37;1.80;;;0.17;;
60225;SDS011;46090;48.436;11.410;2023-05-07T05:29:22;0.63;;;0.20;;
60225;SDS011;46090;48.436;11.410;2023-05-07T05:32:08;9.75;;;0.65;;
60225;SDS011;46090;48.436;11.410;2023-05-07T05:34:54;1.48;;;0.20;;
60225;SDS011;46090;48.436;11.410;2023-05-07T05:37:39;2.38;;;0.40;;
60225;SDS011;46090;48.436;11.410;2023-05-07T05:40:25;2.50;;;0.25;;
60225;SDS011;46090;48.436;11.410;2023-05-07T05:43:11;1.88;;;0.20;;
60225;SDS011;46090;48.436;11.410;2023-05-07T05:45:56;1.27;;;0.22;;
60225;SDS011;46090;48.436;11.410;2023-05-07T05:48:43;2.40;;;0.38;;
60225;SDS011;46090;48.436;11.410;2023-05-07T05:51:29;7.00;;;0.80;;
60225;SDS011;46090;48.436;11.410;2023-05-07T05:54:15;5.30;;;1.60;;
60225;SDS011;46090;48.436;11.410;2023-05-07T05:57:00;9.18;;;3.42;;
60225;SDS011;46090;48.436;11.410;2023-05-07T05:59:48;10.13;;;2.80;;
60225;SDS011;46090;48.436;11.410;2023-05-07T06:02:34;9.02;;;3.78;;
60225;SDS011;46090;48.436;11.410;2023-05-07T06:05:21;12.68;;;5.50;;
60225;SDS011;46090;48.436;11.410;2023-05-07T06:08:09;9.20;;;5.10;;
60225;SDS011;46090;48.436;11.410;2023-05-07T06:13:40;10.88;;;4.93;;
60225;SDS011;46090;48.436;11.410;2023-05-07T06:16:26;14.98;;;5.60;;
60225;SDS011;46090;48.436;11.410;2023-05-07T06:19:11;9.73;;;5.32;;
60225;SDS011;46090;48.436;11.410;2023-05-07T06:21:57;10.18;;;6.32;;
60225;SDS011;46090;48.436;11.410;2023-05-07T06:24:46;11.45;;;7.22;;
60225;SDS011;46090;48.436;11.410;2023-05-07T06:27:31;12.90;;;6.63;;
60225;SDS011;46090;48.436;11.410;2023-05-07T06:30:17;13.02;;;7.50;;
60225;SDS011;46090;48.436;11.410;2023-05-07T06:33:02;10.90;;;7.50;;
60225;SDS011;46090;48.436;11.410;2023-05-07T06:35:47;12.77;;;8.52;;
60225;SDS011;46090;48.436;11.410;2023-05-07T06:38:32;17.10;;;8.25;;
60225;SDS011;46090;48.436;11.410;2023-05-07T06:41:17;16.67;;;8.50;;
60225;SDS011;46090;48.436;11.410;2023-05-07T06:44:03;14.77;;;9.20;;
60225;SDS011;46090;48.436;11.410;2023-05-07T06:46:55;12.15;;;7.60;;
60225;SDS011;46090;48.436;11.410;2023-05-07T06:49:40;11.77;;;7.15;;
60225;SDS011;46090;48.436;11.410;2023-05-07T06:52:25;10.18;;;6.93;;
60225;SDS011;46090;48.436;11.410;2023-05-07T06:55:11;13.32;;;7.70;;
60225;SDS011;46090;48.436;11.410;2023-05-07T06:57:57;12.20;;;7.13;;
60225;SDS011;46090;48.436;11.410;2023-05-07T07:00:45;11.55;;;7.30;;
60225;SDS011;46090;48.436;11.410;2023-05-07T07:03:31;14.23;;;7.88;;
60225;SDS011;46090;48.436;11.410;2023-05-07T07:06:16;13.75;;;7.28;;
60225;SDS011;46090;48.436;11.410;2023-05-07T07:09:01;14.63;;;5.97;;
60225;SDS011;46090;48.436;11.410;2023-05-07T07:11:48;10.80;;;6.47;;
60225;SDS011;46090;48.436;11.410;2023-05-07T07:14:35;11.02;;;6.82;;
60225;SDS011;46090;48.436;11.410;2023-05-07T07:17:21;13.05;;;6.95;;
60225;SDS011;46090;48.436;11.410;2023-05-07T07:20:06;14.98;;;6.22;;
60225;SDS011;46090;48.436;11.410;2023-05-07T07:22:53;12.95;;;5.95;;
60225;SDS011;46090;48.436;11.410;2023-05-07T07:25:38;10.82;;;6.07;;
60225;SDS011;46090;48.436;11.410;2023-05-07T07:28:24;13.68;;;5.95;;
60225;SDS011;46090;48.436;11.410;2023-05-07T07:31:10;10.88;;;4.93;;
60225;SDS011;46090;48.436;11.410;2023-05-07T07:33:56;12.30;;;5.07;;
60225;SDS011;46090;48.436;11.410;2023-05-07T07:36:42;9.23;;;4.60;;
60225;SDS011;46090;48.436;11.410;2023-05-07T07:39:34;8.05;;;4.07;;
60225;SDS011;46090;48.436;11.410;2023-05-07T07:42:20;10.45;;;4.40;;
60225;SDS011;46090;48.436;11.410;2023-05-07T07:45:05;8.02;;;4.15;;
60225;SDS011;46090;48.436;11.410;2023-05-07T07:47:55;7.95;;;3.60;;
60225;SDS011;46090;48.436;11.410;2023-05-07T07:50:41;6.80;;;3.30;;
60225;SDS011;46090;48.436;11.410;2023-05-07T07:53:32;7.65;;;3.70;;
60225;SDS011;46090;48.436;11.410;2023-05-07T07:56:18;6.40;;;3.30;;
60225;SDS011;46090;48.436;11.410;2023-05-07T07:59:03;7.40;;;3.00;;
60225;SDS011;46090;48.436;11.410;2023-05-07T08:01:49;10.48;;;3.55;;
60225;SDS011;46090;48.436;11.410;2023-05-07T08:04:41;10.27;;;3.22;;
60225;SDS011;46090;48.436;11.410;2023-05-07T08:07:28;8.23;;;3.05;;
60225;SDS011;46090;48.436;11.410;2023-05-07T08:10:13;10.80;;;3.10;;
60225;SDS011;46090;48.436;11.410;2023-05-07T08:15:57;7.00;;;2.75;;
60225;SDS011;46090;48.436;11.410;2023-05-07T08:18:42;13.35;;;2.70;;
60225;SDS011;46090;48.436;11.410;2023-05-07T08:21:28;6.55;;;2.50;;
60225;SDS011;46090;48.436;11.410;2023-05-07T08:24:13;14.18;;;3.13;;
60225;SDS011;46090;48.436;11.410;2023-05-07T08:26:59;8.82;;;2.20;;
60225;SDS011;46090;48.436;11.410;2023-05-07T08:32:34;7.18;;;1.92;;
60225;SDS011;46090;48.436;11.410;2023-05-07T08:35:20;11.55;;;2.05;;
60225;SDS011;46090;48.436;11.410;2023-05-07T08:38:05;8.30;;;1.80;;
60225;SDS011;46090;48.436;11.410;2023-05-07T08:40:50;5.60;;;2.22;;
60225;SDS011;46090;48.436;11.410;2023-05-07T08:43:37;4.82;;;2.10;;
60225;SDS011;46090;48.436;11.410;2023-05-07T08:46:25;7.53;;;2.38;;
60225;SDS011;46090;48.436;11.410;2023-05-07T08:49:13;8.38;;;2.03;;
60225;SDS011;46090;48.436;11.410;2023-05-07T08:52:01;7.80;;;1.83;;
60225;SDS011;46090;48.436;11.410;2023-05-07T08:54:47;4.53;;;1.73;;
60225;SDS011;46090;48.436;11.410;2023-05-07T08:57:33;4.80;;;1.58;;
60225;SDS011;46090;48.436;11.410;2023-05-07T09:00:19;6.43;;;1.77;;
60225;SDS011;46090;48.436;11.410;2023-05-07T09:03:07;11.23;;;1.80;;
60225;SDS011;46090;48.436;11.410;2023-05-07T09:05:54;6.55;;;1.52;;
60225;SDS011;46090;48.436;11.410;2023-05-07T09:08:43;6.30;;;1.98;;
60225;SDS011;46090;48.436;11.410;2023-05-07T09:11:34;10.80;;;1.85;;
60225;SDS011;46090;48.436;11.410;2023-05-07T09:14:21;8.07;;;2.10;;
60225;SDS011;46090;48.436;11.410;2023-05-07T09:17:06;6.53;;;1.70;;
60225;SDS011;46090;48.436;11.410;2023-05-07T09:25:28;8.32;;;1.60;;
60225;SDS011;46090;48.436;11.410;2023-05-07T09:28:15;8.10;;;1.55;;
60225;SDS011;46090;48.436;11.410;2023-05-07T09:31:00;7.65;;;1.48;;
60225;SDS011;46090;48.436;11.410;2023-05-07T09:33:47;4.50;;;1.50;;
60225;SDS011;46090;48.436;11.410;2023-05-07T09:39:18;6.90;;;1.33;;
60225;SDS011;46090;48.436;11.410;2023-05-07T09:42:04;8.68;;;1.50;;
60225;SDS011;46090;48.436;11.410;2023-05-07T09:44:53;10.10;;;1.60;;
60225;SDS011;46090;48.436;11.410;2023-05-07T09:47:42;5.85;;;1.23;;
60225;SDS011;46090;48.436;11.410;2023-05-07T09:50:34;6.30;;;1.10;;
60225;SDS011;46090;48.436;11.410;2023-05-07T09:53:21;6.38;;;1.50;;
60225;SDS011;46090;48.436;11.410;2023-05-07T09:56:08;4.65;;;1.25;;
60225;SDS011;46090;48.436;11.410;2023-05-07T10:01:39;5.60;;;1.27;;
60225;SDS011;46090;48.436;11.410;2023-05-07T10:04:27;5.43;;;1.23;;
60225;SDS011;46090;48.436;11.410;2023-05-07T10:09:58;5.55;;;1.33;;
60225;SDS011;46090;48.436;11.410;2023-05-07T10:12:50;6.68;;;1.15;;
60225;SDS011;46090;48.436;11.410;2023-05-07T10:15:44;7.10;;;1.10;;
60225;SDS011;46090;48.436;11.410;2023-05-07T10:18:30;3.50;;;1.00;;
60225;SDS011;46090;48.436;11.410;2023-05-07T10:21:24;2.80;;;0.82;;
60225;SDS011;46090;48.436;11.410;2023-05-07T10:27:10;4.22;;;0.88;;
60225;SDS011;46090;48.436;11.410;2023-05-07T10:33:03;3.08;;;0.98;;
60225;SDS011;46090;48.436;11.410;2023-05-07T10:35:58;3.30;;;0.90;;
60225;SDS011;46090;48.436;11.410;2023-05-07T10:38:47;2.90;;;0.93;;
60225;SDS011;46090;48.436;11.410;2023-05-07T10:41:33;5.30;;;1.00;;
60225;SDS011;46090;48.436;11.410;2023-05-07T10:44:28;5.15;;;0.77;;
60225;SDS011;46090;48.436;11.410;2023-05-07T10:47:20;2.72;;;0.63;;
60225;SDS011;46090;48.436;11.410;2023-05-07T10:56:25;2.72;;;0.75;;
60225;SDS011;46090;48.436;11.410;2023-05-07T11:02:20;3.85;;;0.80;;
60225;SDS011;46090;48.436;11.410;2023-05-07T11:05:23;3.10;;;0.77;;
60225;SDS011;46090;48.436;11.410;2023-05-07T11:11:49;2.67;;;0.80;;
60225;SDS011;46090;48.436;11.410;2023-05-07T11:14:44;2.50;;;0.77;;
60225;SDS011;46090;48.436;11.410;2023-05-07T11:17:53;3.33;;;1.10;;
60225;SDS011;46090;48.436;11.410;2023-05-07T11:20:48;2.35;;;0.80;;
60225;SDS011;46090;48.436;11.410;2023-05-07T11:26:42;3.55;;;0.80;;
60225;SDS011;46090;48.436;11.410;2023-05-07T11:29:28;3.75;;;0.70;;
60225;SDS011;46090;48.436;11.410;2023-05-07T11:32:25;2.75;;;0.90;;
60225;SDS011;46090;48.436;11.410;2023-05-07T11:35:16;4.30;;;1.02;;
60225;SDS011;46090;48.436;11.410;2023-05-07T11:38:03;3.72;;;0.70;;
60225;SDS011;46090;48.436;11.410;2023-05-07T11:40:52;4.00;;;0.95;;
60225;SDS011;46090;48.436;11.410;2023-05-07T11:43:40;3.33;;;0.68;;
60225;SDS011;46090;48.436;11.410;2023-05-07T11:46:42;3.88;;;0.57;;
60225;SDS011;46090;48.436;11.410;2023-05-07T11:49:28;4.85;;;0.90;;
60225;SDS011;46090;48.436;11.410;2023-05-07T11:52:14;2.95;;;0.60;;
60225;SDS011;46090;48.436;11.410;2023-05-07T11:55:00;2.10;;;0.75;;
60225;SDS011;46090;48.436;11.410;2023-05-07T11:57:46;4.45;;;0.90;;
60225;SDS011;46090;48.436;11.410;2023-05-07T12:03:16;2.67;;;0.70;;
60225;SDS011;46090;48.436;11.410;2023-05-07T12:06:03;1.83;;;0.60;;
60225;SDS011;46090;48.436;11.410;2023-05-07T12:08:50;5.63;;;1.08;;
60225;SDS011;46090;48.436;11.410;2023-05-07T12:11:35;2.22;;;0.68;;
60225;SDS011;46090;48.436;11.410;2023-05-07T12:14:20;2.38;;;0.80;;
60225;SDS011;46090;48.436;11.410;2023-05-07T12:19:54;2.75;;;0.90;;
60225;SDS011;46090;48.436;11.410;2023-05-07T12:22:40;1.83;;;0.60;;
60225;SDS011;46090;48.436;11.410;2023-05-07T12:25:25;2.20;;;0.80;;
60225;SDS011;46090;48.436;11.410;2023-05-07T12:28:12;2.20;;;0.60;;
60225;SDS011;46090;48.436;11.410;2023-05-07T12:31:00;3.97;;;0.88;;
60225;SDS011;46090;48.436;11.410;2023-05-07T12:33:46;3.10;;;0.60;;
60225;SDS011;46090;48.436;11.410;2023-05-07T12:36:38;5.22;;;1.23;;
60225;SDS011;46090;48.436;11.410;2023-05-07T12:39:23;2.13;;;0.80;;
60225;SDS011;46090;48.436;11.410;2023-05-07T12:42:08;2.28;;;0.70;;
60225;SDS011;46090;48.436;11.410;2023-05-07T12:45:00;4.63;;;0.80;;
60225;SDS011;46090;48.436;11.410;2023-05-07T12:47:53;2.17;;;0.73;;
60225;SDS011;46090;48.436;11.410;2023-05-07T12:53:24;2.13;;;0.70;;
60225;SDS011;46090;48.436;11.410;2023-05-07T12:56:10;1.80;;;0.50;;
60225;SDS011;46090;48.436;11.410;2023-05-07T13:01:41;2.67;;;0.82;;
60225;SDS011;46090;48.436;11.410;2023-05-07T13:04:30;2.33;;;0.65;;
60225;SDS011;46090;48.436;11.410;2023-05-07T13:07:15;4.30;;;0.93;;
60225;SDS011;46090;48.436;11.410;2023-05-07T13:10:00;2.78;;;0.70;;
60225;SDS011;46090;48.436;11.410;2023-05-07T13:12:45;2.45;;;1.00;;
60225;SDS011;46090;48.436;11.410;2023-05-07T13:15:30;2.05;;;0.68;;
60225;SDS011;46090;48.436;11.410;2023-05-07T13:18:15;1.67;;;0.60;;
60225;SDS011;46090;48.436;11.410;2023-05-07T13:21:02;4.28;;;0.90;;
60225;SDS011;46090;48.436;11.410;2023-05-07T13:26:33;3.67;;;0.80;;
60225;SDS011;46090;48.436;11.410;2023-05-07T13:32:03;1.30;;;0.50;;
60225;SDS011;46090;48.436;11.410;2023-05-07T13:37:34;3.72;;;0.60;;
60225;SDS011;46090;48.436;11.410;2023-05-07T13:40:19;4.55;;;0.77;;
60225;SDS011;46090;48.436;11.410;2023-05-07T13:43:05;3.58;;;0.80;;
60225;SDS011;46090;48.436;11.410;2023-05-07T13:45:51;2.25;;;0.73;;
60225;SDS011;46090;48.436;11.410;2023-05-07T13:48:36;3.40;;;0.73;;
60225;SDS011;46090;48.436;11.410;2023-05-07T13:51:21;2.70;;;0.82;;
60225;SDS011;46090;48.436;11.410;2023-05-07T13:54:07;3.58;;;0.90;;
60225;SDS011;46090;48.436;11.410;2023-05-07T13:56:52;3.08;;;0.88;;
60225;SDS011;46090;48.436;11.410;2023-05-07T13:59:37;2.30;;;0.90;;
60225;SDS011;46090;48.436;11.410;2023-05-07T14:02:22;3.13;;;0.80;;
60225;SDS011;46090;48.436;11.410;2023-05-07T14:05:07;4.68;;;0.98;;
60225;SDS011;46090;48.436;11.410;2023-05-07T14:07:54;2.45;;;0.70;;
60225;SDS011;46090;48.436;11.410;2023-05-07T14:10:41;3.25;;;0.82;;
60225;SDS011;46090;48.436;11.410;2023-05-07T14:13:26;2.42;;;0.80;;
60225;SDS011;46090;48.436;11.410;2023-05-07T14:16:11;2.58;;;0.60;;
60225;SDS011;46090;48.436;11.410;2023-05-07T14:21:42;2.37;;;0.90;;
60225;SDS011;46090;48.436;11.410;2023-05-07T14:24:28;1.70;;;0.65;;
60225;SDS011;46090;48.436;11.410;2023-05-07T14:27:22;3.10;;;0.70;;
60225;SDS011;46090;48.436;11.410;2023-05-07T14:32:53;2.10;;;0.60;;
60225;SDS011;46090;48.436;11.410;2023-05-07T14:38:24;2.78;;;0.70;;
60225;SDS011;46090;48.436;11.410;2023-05-07T14:41:09;2.28;;;0.70;;
60225;SDS011;46090;48.436;11.410;2023-05-07T14:43:54;3.55;;;0.70;;
60225;SDS011;46090;48.436;11.410;2023-05-07T14:49:25;5.75;;;0.98;;
60225;SDS011;46090;48.436;11.410;2023-05-07T14:52:10;3.50;;;0.80;;
60225;SDS011;46090;48.436;11.410;2023-05-07T14:54:55;4.75;;;0.82;;
60225;SDS011;46090;48.436;11.410;2023-05-07T14:57:40;6.22;;;0.77;;
60225;SDS011;46090;48.436;11.410;2023-05-07T15:03:11;3.88;;;0.88;;
60225;SDS011;46090;48.436;11.410;2023-05-07T15:06:01;4.88;;;0.80;;
60225;SDS011;46090;48.436;11.410;2023-05-07T15:08:47;5.15;;;0.80;;
60225;SDS011;46090;48.436;11.410;2023-05-07T15:11:33;2.70;;;0.88;;
60225;SDS011;46090;48.436;11.410;2023-05-07T15:14:20;2.97;;;0.80;;
60225;SDS011;46090;48.436;11.410;2023-05-07T15:17:07;3.42;;;0.95;;
60225;SDS011;46090;48.436;11.410;2023-05-07T15:19:52;2.67;;;0.70;;
60225;SDS011;46090;48.436;11.410;2023-05-07T15:22:38;3.75;;;0.95;;
60225;SDS011;46090;48.436;11.410;2023-05-07T15:25:23;1.52;;;0.63;;
60225;SDS011;46090;48.436;11.410;2023-05-07T15:30:54;4.17;;;0.93;;
60225;SDS011;46090;48.436;11.410;2023-05-07T15:33:40;3.35;;;0.90;;
60225;SDS011;46090;48.436;11.410;2023-05-07T15:36:25;2.70;;;0.65;;
60225;SDS011;46090;48.436;11.410;2023-05-07T15:39:10;4.15;;;0.70;;
60225;SDS011;46090;48.436;11.410;2023-05-07T15:41:55;3.60;;;0.73;;
60225;SDS011;46090;48.436;11.410;2023-05-07T15:44:41;3.72;;;1.30;;
60225;SDS011;46090;48.436;11.410;2023-05-07T15:47:26;4.72;;;1.85;;
60225;SDS011;46090;48.436;11.410;2023-05-07T15:52:56;4.03;;;1.85;;
60225;SDS011;46090;48.436;11.410;2023-05-07T15:55:42;3.58;;;1.02;;
60225;SDS011;46090;48.436;11.410;2023-05-07T15:58:28;2.20;;;1.10;;
60225;SDS011;46090;48.436;11.410;2023-05-07T16:01:13;6.25;;;1.30;;
60225;SDS011;46090;48.436;11.410;2023-05-07T16:03:59;3.88;;;1.00;;
60225;SDS011;46090;48.436;11.410;2023-05-07T16:06:44;4.63;;;1.40;;
60225;SDS011;46090;48.436;11.410;2023-05-07T16:09:31;4.30;;;1.10;;
60225;SDS011;46090;48.436;11.410;2023-05-07T16:12:17;2.17;;;0.77;;
60225;SDS011;46090;48.436;11.410;2023-05-07T16:15:02;3.38;;;0.82;;
60225;SDS011;46090;48.436;11.410;2023-05-07T16:17:48;3.15;;;1.00;;
60225;SDS011;46090;48.436;11.410;2023-05-07T16:20:34;2.78;;;1.00;;
60225;SDS011;46090;48.436;11.410;2023-05-07T16:23:20;3.17;;;1.40;;
60225;SDS011;46090;48.436;11.410;2023-05-07T16:26:06;3.42;;;1.15;;
60225;SDS011;46090;48.436;11.410;2023-05-07T16:28:51;3.25;;;1.30;;
60225;SDS011;46090;48.436;11.410;2023-05-07T16:31:36;2.95;;;0.90;;
60225;SDS011;46090;48.436;11.410;2023-05-07T16:34:21;2.03;;;0.80;;
60225;SDS011;46090;48.436;11.410;2023-05-07T16:37:07;2.50;;;0.80;;
60225;SDS011;46090;48.436;11.410;2023-05-07T16:39:52;6.10;;;1.13;;
60225;SDS011;46090;48.436;11.410;2023-05-07T16:42:37;2.85;;;1.13;;
60225;SDS011;46090;48.436;11.410;2023-05-07T16:45:23;3.13;;;1.00;;
60225;SDS011;46090;48.436;11.410;2023-05-07T16:48:08;5.85;;;0.80;;
60225;SDS011;46090;48.436;11.410;2023-05-07T16:50:53;2.63;;;0.80;;
60225;SDS011;46090;48.436;11.410;2023-05-07T16:53:38;3.50;;;0.90;;
60225;SDS011;46090;48.436;11.410;2023-05-07T16:56:23;2.08;;;0.90;;
60225;SDS011;46090;48.436;11.410;2023-05-07T16:59:09;7.00;;;0.98;;
60225;SDS011;46090;48.436;11.410;2023-05-07T17:01:54;3.08;;;0.82;;
60225;SDS011;46090;48.436;11.410;2023-05-07T17:04:42;7.68;;;0.90;;
60225;SDS011;46090;48.436;11.410;2023-05-07T17:07:27;7.40;;;1.17;;
60225;SDS011;46090;48.436;11.410;2023-05-07T17:10:12;8.88;;;1.10;;
60225;SDS011;46090;48.436;11.410;2023-05-07T17:12:57;5.82;;;0.73;;
60225;SDS011;46090;48.436;11.410;2023-05-07T17:18:30;4.65;;;0.90;;
60225;SDS011;46090;48.436;11.410;2023-05-07T17:21:15;4.00;;;0.90;;
60225;SDS011;46090;48.436;11.410;2023-05-07T17:24:00;4.07;;;0.98;;
60225;SDS011;46090;48.436;11.410;2023-05-07T17:26:46;2.75;;;0.77;;
60225;SDS011;46090;48.436;11.410;2023-05-07T17:29:32;3.45;;;0.80;;
60225;SDS011;46090;48.436;11.410;2023-05-07T17:32:17;2.63;;;0.80;;
60225;SDS011;46090;48.436;11.410;2023-05-07T17:35:03;3.58;;;0.90;;
60225;SDS011;46090;48.436;11.410;2023-05-07T17:37:48;3.17;;;0.70;;
60225;SDS011;46090;48.436;11.410;2023-05-07T17:40:36;2.63;;;0.98;;
60225;SDS011;46090;48.436;11.410;2023-05-07T17:43:21;3.38;;;1.08;;
60225;SDS011;46090;48.436;11.410;2023-05-07T17:46:07;5.07;;;1.10;;
60225;SDS011;46090;48.436;11.410;2023-05-07T17:48:53;3.65;;;0.80;;
60225;SDS011;46090;48.436;11.410;2023-05-07T17:51:40;3.85;;;0.90;;
60225;SDS011;46090;48.436;11.410;2023-05-07T17:54:37;4.22;;;0.88;;
60225;SDS011;46090;48.436;11.410;2023-05-07T17:57:22;4.32;;;0.90;;
60225;SDS011;46090;48.436;11.410;2023-05-07T18:00:08;4.65;;;1.25;;
60225;SDS011;46090;48.436;11.410;2023-05-07T18:02:54;4.18;;;1.00;;
60225;SDS011;46090;48.436;11.410;2023-05-07T18:05:40;6.90;;;1.33;;
60225;SDS011;46090;48.436;11.410;2023-05-07T18:08:26;3.25;;;1.17;;
60225;SDS011;46090;48.436;11.410;2023-05-07T18:11:11;3.00;;;1.05;;
60225;SDS011;46090;48.436;11.410;2023-05-07T18:13:56;3.20;;;1.08;;
60225;SDS011;46090;48.436;11.410;2023-05-07T18:19:26;4.15;;;0.98;;
60225;SDS011;46090;48.436;11.410;2023-05-07T18:22:12;4.90;;;1.10;;
60225;SDS011;46090;48.436;11.410;2023-05-07T18:24:57;3.53;;;1.00;;
60225;SDS011;46090;48.436;11.410;2023-05-07T18:27:41;5.07;;;1.10;;
60225;SDS011;46090;48.436;11.410;2023-05-07T18:30:27;6.90;;;1.10;;